Terminal Aerodrome Forecast
Issued by NWS

Home | Current Version | Previous Version | Text Only | Print | Product List | Glossary Off
Versions: 1 2 3 4 5 6 7 8 9 10 11 12 13 14 15 16 17 18 19

000
FTUS43 KMPX 152300
TAFRNH
TAF
KRNH 152336Z 1600/1624 17005KT P6SM OVC100
     FM160800 11014KT P6SM VCSH OVC080
     FM161100 10015G22KT 5SM -SN OVC050
     FM161300 10017G24KT 2SM -SN OVC020
     FM161800 09014G24KT 4SM -RASN BR OVC015=

USA.gov is the U.S. government's official web portal to all federal, state and local government web resources and services.